sensor_id;sensor_type;location;lat;lon;timestamp;temperature;humidity
47626;DHT22;33342;45.574;9.252;2023-02-28T00:01:31;8.40;99.90
47626;DHT22;33342;45.574;9.252;2023-02-28T00:03:58;8.40;99.90
47626;DHT22;33342;45.574;9.252;2023-02-28T00:06:26;8.40;99.90
47626;DHT22;33342;45.574;9.252;2023-02-28T00:08:53;8.40;99.90
47626;DHT22;33342;45.574;9.252;2023-02-28T00:11:20;8.40;99.90
47626;DHT22;33342;45.574;9.252;2023-02-28T00:13:47;8.40;99.90
47626;DHT22;33342;45.574;9.252;2023-02-28T00:16:17;8.40;99.90
47626;DHT22;33342;45.574;9.252;2023-02-28T00:18:45;8.40;99.90
47626;DHT22;33342;45.574;9.252;2023-02-28T00:21:15;8.30;99.90
47626;DHT22;33342;45.574;9.252;2023-02-28T00:23:42;8.40;99.90
47626;DHT22;33342;45.574;9.252;2023-02-28T00:26:10;8.40;99.90
47626;DHT22;33342;45.574;9.252;2023-02-28T00:28:37;8.30;99.90
47626;DHT22;33342;45.574;9.252;2023-02-28T00:31:04;8.40;99.90
47626;DHT22;33342;45.574;9.252;2023-02-28T00:33:32;8.30;99.90
47626;DHT22;33342;45.574;9.252;2023-02-28T00:36:08;8.30;99.90
47626;DHT22;33342;45.574;9.252;2023-02-28T00:38:36;8.30;99.90
47626;DHT22;33342;45.574;9.252;2023-02-28T00:41:03;8.30;99.90
47626;DHT22;33342;45.574;9.252;2023-02-28T00:43:37;8.30;99.90
47626;DHT22;33342;45.574;9.252;2023-02-28T00:46:05;8.30;99.90
47626;DHT22;33342;45.574;9.252;2023-02-28T00:48:33;8.30;99.90
47626;DHT22;33342;45.574;9.252;2023-02-28T00:51:00;8.30;99.90
47626;DHT22;33342;45.574;9.252;2023-02-28T00:53:28;8.30;99.90
47626;DHT22;33342;45.574;9.252;2023-02-28T00:55:57;8.20;99.90
47626;DHT22;33342;45.574;9.252;2023-02-28T00:58:25;8.20;99.90
47626;DHT22;33342;45.574;9.252;2023-02-28T01:00:53;8.10;99.90
47626;DHT22;33342;45.574;9.252;2023-02-28T01:03:21;8.20;99.90
47626;DHT22;33342;45.574;9.252;2023-02-28T01:05:49;8.20;99.90
47626;DHT22;33342;45.574;9.252;2023-02-28T01:08:16;8.20;99.90
47626;DHT22;33342;45.574;9.252;2023-02-28T01:10:43;8.20;99.90
47626;DHT22;33342;45.574;9.252;2023-02-28T01:13:11;8.20;99.90
47626;DHT22;33342;45.574;9.252;2023-02-28T01:15:41;8.30;99.90
47626;DHT22;33342;45.574;9.252;2023-02-28T01:18:11;8.20;99.90
47626;DHT22;33342;45.574;9.252;2023-02-28T01:20:38;8.20;99.90
47626;DHT22;33342;45.574;9.252;2023-02-28T01:23:05;8.30;99.90
47626;DHT22;33342;45.574;9.252;2023-02-28T01:25:36;8.30;99.90
47626;DHT22;33342;45.574;9.252;2023-02-28T01:28:05;8.30;99.90
47626;DHT22;33342;45.574;9.252;2023-02-28T01:30:33;8.30;99.90
47626;DHT22;33342;45.574;9.252;2023-02-28T01:33:00;8.20;99.90
47626;DHT22;33342;45.574;9.252;2023-02-28T01:35:27;8.20;99.90
47626;DHT22;33342;45.574;9.252;2023-02-28T01:37:54;8.20;99.90
47626;DHT22;33342;45.574;9.252;2023-02-28T01:40:25;8.10;99.90
47626;DHT22;33342;45.574;9.252;2023-02-28T01:42:52;8.10;99.90
47626;DHT22;33342;45.574;9.252;2023-02-28T01:45:26;8.10;99.90
47626;DHT22;33342;45.574;9.252;2023-02-28T01:48:05;8.20;99.90
47626;DHT22;33342;45.574;9.252;2023-02-28T01:50:38;8.20;99.90
47626;DHT22;33342;45.574;9.252;2023-02-28T01:53:08;8.20;99.90
47626;DHT22;33342;45.574;9.252;2023-02-28T01:55:38;8.20;99.90
47626;DHT22;33342;45.574;9.252;2023-02-28T01:58:06;8.20;99.90
47626;DHT22;33342;45.574;9.252;2023-02-28T02:00:33;8.20;99.90
47626;DHT22;33342;45.574;9.252;2023-02-28T02:03:06;8.20;99.90
47626;DHT22;33342;45.574;9.252;2023-02-28T02:05:36;8.20;99.90
47626;DHT22;33342;45.574;9.252;2023-02-28T02:08:11;8.20;99.90
47626;DHT22;33342;45.574;9.252;2023-02-28T02:10:43;8.20;99.90
47626;DHT22;33342;45.574;9.252;2023-02-28T02:19:08;8.10;99.90
47626;DHT22;33342;45.574;9.252;2023-02-28T02:35:47;8.10;99.90
47626;DHT22;33342;45.574;9.252;2023-02-28T02:38:36;8.00;99.90
47626;DHT22;33342;45.574;9.252;2023-02-28T02:46:26;8.00;99.90
47626;DHT22;33342;45.574;9.252;2023-02-28T02:48:56;8.00;99.90
47626;DHT22;33342;45.574;9.252;2023-02-28T02:51:27;8.00;99.90
47626;DHT22;33342;45.574;9.252;2023-02-28T02:54:05;8.00;99.90
47626;DHT22;33342;45.574;9.252;2023-02-28T02:56:35;8.00;99.90
47626;DHT22;33342;45.574;9.252;2023-02-28T02:59:08;8.00;99.90
47626;DHT22;33342;45.574;9.252;2023-02-28T03:01:37;8.00;99.90
47626;DHT22;33342;45.574;9.252;2023-02-28T03:04:09;8.00;99.90
47626;DHT22;33342;45.574;9.252;2023-02-28T03:06:37;8.00;99.90
47626;DHT22;33342;45.574;9.252;2023-02-28T03:09:04;8.10;99.90
47626;DHT22;33342;45.574;9.252;2023-02-28T03:11:32;8.00;99.90
47626;DHT22;33342;45.574;9.252;2023-02-28T03:17:08;8.00;99.90
47626;DHT22;33342;45.574;9.252;2023-02-28T03:25:07;7.90;99.90
47626;DHT22;33342;45.574;9.252;2023-02-28T03:27:41;7.90;99.90
47626;DHT22;33342;45.574;9.252;2023-02-28T03:30:38;7.80;99.90
47626;DHT22;33342;45.574;9.252;2023-02-28T03:33:20;7.80;99.90
47626;DHT22;33342;45.574;9.252;2023-02-28T03:35:59;7.80;99.90
47626;DHT22;33342;45.574;9.252;2023-02-28T03:38:35;7.80;99.90
47626;DHT22;33342;45.574;9.252;2023-02-28T03:41:33;7.80;99.90
47626;DHT22;33342;45.574;9.252;2023-02-28T03:44:07;7.90;99.90
47626;DHT22;33342;45.574;9.252;2023-02-28T03:46:39;7.90;99.90
47626;DHT22;33342;45.574;9.252;2023-02-28T03:49:32;7.90;99.90
47626;DHT22;33342;45.574;9.252;2023-02-28T03:52:03;7.90;99.90
47626;DHT22;33342;45.574;9.252;2023-02-28T03:54:37;7.90;99.90
47626;DHT22;33342;45.574;9.252;2023-02-28T03:57:29;7.90;99.90
47626;DHT22;33342;45.574;9.252;2023-02-28T04:00:32;7.90;99.90
47626;DHT22;33342;45.574;9.252;2023-02-28T04:03:01;7.90;99.90
47626;DHT22;33342;45.574;9.252;2023-02-28T04:05:29;7.90;99.90
47626;DHT22;33342;45.574;9.252;2023-02-28T04:08:06;7.90;99.90
47626;DHT22;33342;45.574;9.252;2023-02-28T04:10:33;7.90;99.90
47626;DHT22;33342;45.574;9.252;2023-02-28T04:13:00;7.90;99.90
47626;DHT22;33342;45.574;9.252;2023-02-28T04:15:28;7.90;99.90
47626;DHT22;33342;45.574;9.252;2023-02-28T04:17:55;7.90;99.90
47626;DHT22;33342;45.574;9.252;2023-02-28T04:20:22;7.90;99.90
47626;DHT22;33342;45.574;9.252;2023-02-28T04:22:49;7.90;99.90
47626;DHT22;33342;45.574;9.252;2023-02-28T04:25:16;7.90;99.90
47626;DHT22;33342;45.574;9.252;2023-02-28T04:27:42;7.90;99.90
47626;DHT22;33342;45.574;9.252;2023-02-28T04:30:11;7.90;99.90
47626;DHT22;33342;45.574;9.252;2023-02-28T04:32:39;7.90;99.90
47626;DHT22;33342;45.574;9.252;2023-02-28T04:35:06;7.90;99.90
47626;DHT22;33342;45.574;9.252;2023-02-28T04:37:35;7.90;99.90
47626;DHT22;33342;45.574;9.252;2023-02-28T04:40:04;7.90;99.90
47626;DHT22;33342;45.574;9.252;2023-02-28T04:42:31;7.90;99.90
47626;DHT22;33342;45.574;9.252;2023-02-28T04:45:03;7.90;99.90
47626;DHT22;33342;45.574;9.252;2023-02-28T04:47:30;7.90;99.90
47626;DHT22;33342;45.574;9.252;2023-02-28T04:49:58;7.90;99.90
47626;DHT22;33342;45.574;9.252;2023-02-28T04:52:27;7.90;99.90
47626;DHT22;33342;45.574;9.252;2023-02-28T04:54:54;7.90;99.90
47626;DHT22;33342;45.574;9.252;2023-02-28T04:57:21;7.90;99.90
47626;DHT22;33342;45.574;9.252;2023-02-28T04:59:48;7.80;99.90
47626;DHT22;33342;45.574;9.252;2023-02-28T05:02:15;7.80;99.90
47626;DHT22;33342;45.574;9.252;2023-02-28T05:04:42;7.80;99.90
47626;DHT22;33342;45.574;9.252;2023-02-28T05:07:09;7.80;99.90
47626;DHT22;33342;45.574;9.252;2023-02-28T05:09:36;7.80;99.90
47626;DHT22;33342;45.574;9.252;2023-02-28T05:12:03;7.80;99.90
47626;DHT22;33342;45.574;9.252;2023-02-28T05:14:30;7.80;99.90
47626;DHT22;33342;45.574;9.252;2023-02-28T05:16:57;7.80;99.90
47626;DHT22;33342;45.574;9.252;2023-02-28T05:19:24;7.80;99.90
47626;DHT22;33342;45.574;9.252;2023-02-28T05:21:55;7.80;99.90
47626;DHT22;33342;45.574;9.252;2023-02-28T05:24:22;7.80;99.90
47626;DHT22;33342;45.574;9.252;2023-02-28T05:26:52;7.80;99.90
47626;DHT22;33342;45.574;9.252;2023-02-28T05:29:20;7.80;99.90
47626;DHT22;33342;45.574;9.252;2023-02-28T05:31:47;7.80;99.90
47626;DHT22;33342;45.574;9.252;2023-02-28T05:34:14;7.80;99.90
47626;DHT22;33342;45.574;9.252;2023-02-28T05:36:42;7.80;99.90
47626;DHT22;33342;45.574;9.252;2023-02-28T05:39:09;7.80;99.90
47626;DHT22;33342;45.574;9.252;2023-02-28T05:41:41;7.80;99.90
47626;DHT22;33342;45.574;9.252;2023-02-28T05:44:09;7.80;99.90
47626;DHT22;33342;45.574;9.252;2023-02-28T05:46:36;7.80;99.90
47626;DHT22;33342;45.574;9.252;2023-02-28T05:49:03;7.80;99.90
47626;DHT22;33342;45.574;9.252;2023-02-28T05:51:30;7.80;99.90
47626;DHT22;33342;45.574;9.252;2023-02-28T05:54:01;7.80;99.90
47626;DHT22;33342;45.574;9.252;2023-02-28T05:56:29;7.80;99.90
47626;DHT22;33342;45.574;9.252;2023-02-28T05:58:56;7.80;99.90
47626;DHT22;33342;45.574;9.252;2023-02-28T06:01:37;7.80;99.90
47626;DHT22;33342;45.574;9.252;2023-02-28T06:04:06;7.80;99.90
47626;DHT22;33342;45.574;9.252;2023-02-28T06:06:36;7.70;99.90
47626;DHT22;33342;45.574;9.252;2023-02-28T06:09:04;7.60;99.90
47626;DHT22;33342;45.574;9.252;2023-02-28T06:11:32;7.60;99.90
47626;DHT22;33342;45.574;9.252;2023-02-28T06:14:01;7.60;99.90
47626;DHT22;33342;45.574;9.252;2023-02-28T06:16:30;7.50;99.90
47626;DHT22;33342;45.574;9.252;2023-02-28T06:18:58;7.50;99.90
47626;DHT22;33342;45.574;9.252;2023-02-28T06:21:26;7.40;99.90
47626;DHT22;33342;45.574;9.252;2023-02-28T06:23:56;7.40;99.90
47626;DHT22;33342;45.574;9.252;2023-02-28T06:26:24;7.30;99.90
47626;DHT22;33342;45.574;9.252;2023-02-28T06:28:51;7.30;99.90
47626;DHT22;33342;45.574;9.252;2023-02-28T06:31:18;7.30;99.90
47626;DHT22;33342;45.574;9.252;2023-02-28T06:33:46;7.30;99.90
47626;DHT22;33342;45.574;9.252;2023-02-28T06:36:15;7.30;99.90
47626;DHT22;33342;45.574;9.252;2023-02-28T06:38:43;7.30;99.90
47626;DHT22;33342;45.574;9.252;2023-02-28T06:41:10;7.30;99.90
47626;DHT22;33342;45.574;9.252;2023-02-28T06:43:40;7.30;99.90
47626;DHT22;33342;45.574;9.252;2023-02-28T06:46:10;7.40;99.90
47626;DHT22;33342;45.574;9.252;2023-02-28T06:48:37;7.40;99.90
47626;DHT22;33342;45.574;9.252;2023-02-28T06:51:19;7.40;99.90
47626;DHT22;33342;45.574;9.252;2023-02-28T06:53:48;7.40;99.90
47626;DHT22;33342;45.574;9.252;2023-02-28T06:56:17;7.40;99.90
47626;DHT22;33342;45.574;9.252;2023-02-28T06:58:51;7.40;99.90
47626;DHT22;33342;45.574;9.252;2023-02-28T07:01:19;7.30;99.90
47626;DHT22;33342;45.574;9.252;2023-02-28T07:03:47;7.30;99.90
47626;DHT22;33342;45.574;9.252;2023-02-28T07:06:20;7.30;99.90
47626;DHT22;33342;45.574;9.252;2023-02-28T07:08:50;7.30;99.90
47626;DHT22;33342;45.574;9.252;2023-02-28T07:11:17;7.30;99.90
47626;DHT22;33342;45.574;9.252;2023-02-28T07:13:45;7.30;99.90
47626;DHT22;33342;45.574;9.252;2023-02-28T07:16:14;7.30;99.90
47626;DHT22;33342;45.574;9.252;2023-02-28T07:18:41;7.30;99.90
47626;DHT22;33342;45.574;9.252;2023-02-28T07:21:09;7.30;99.90
47626;DHT22;33342;45.574;9.252;2023-02-28T07:23:37;7.30;99.90
47626;DHT22;33342;45.574;9.252;2023-02-28T07:26:05;7.30;99.90
47626;DHT22;33342;45.574;9.252;2023-02-28T07:28:33;7.40;99.90
47626;DHT22;33342;45.574;9.252;2023-02-28T07:31:07;7.40;99.90
47626;DHT22;33342;45.574;9.252;2023-02-28T07:33:34;7.50;99.90
47626;DHT22;33342;45.574;9.252;2023-02-28T07:36:06;7.50;99.90
47626;DHT22;33342;45.574;9.252;2023-02-28T07:38:37;7.60;99.90
47626;DHT22;33342;45.574;9.252;2023-02-28T07:41:04;7.60;99.90
47626;DHT22;33342;45.574;9.252;2023-02-28T07:43:32;7.60;99.90
47626;DHT22;33342;45.574;9.252;2023-02-28T07:46:07;7.70;99.90
47626;DHT22;33342;45.574;9.252;2023-02-28T07:48:35;7.70;99.90
47626;DHT22;33342;45.574;9.252;2023-02-28T07:51:02;7.70;99.90
47626;DHT22;33342;45.574;9.252;2023-02-28T07:53:30;7.70;99.90
47626;DHT22;33342;45.574;9.252;2023-02-28T07:55:59;7.70;99.90
47626;DHT22;33342;45.574;9.252;2023-02-28T07:58:28;7.70;99.90
47626;DHT22;33342;45.574;9.252;2023-02-28T08:00:56;7.70;99.90
47626;DHT22;33342;45.574;9.252;2023-02-28T08:03:23;7.70;99.90
47626;DHT22;33342;45.574;9.252;2023-02-28T08:05:51;7.70;99.90
47626;DHT22;33342;45.574;9.252;2023-02-28T08:08:19;7.70;99.90
47626;DHT22;33342;45.574;9.252;2023-02-28T08:10:46;7.70;99.90
47626;DHT22;33342;45.574;9.252;2023-02-28T08:13:13;7.80;99.90
47626;DHT22;33342;45.574;9.252;2023-02-28T08:15:41;7.80;99.90
47626;DHT22;33342;45.574;9.252;2023-02-28T08:18:09;7.80;99.90
47626;DHT22;33342;45.574;9.252;2023-02-28T08:20:36;7.70;99.90
47626;DHT22;33342;45.574;9.252;2023-02-28T08:23:03;7.70;99.90
47626;DHT22;33342;45.574;9.252;2023-02-28T08:25:30;7.80;99.90
47626;DHT22;33342;45.574;9.252;2023-02-28T08:27:57;7.90;99.90
47626;DHT22;33342;45.574;9.252;2023-02-28T08:30:24;7.90;99.90
47626;DHT22;33342;45.574;9.252;2023-02-28T08:32:51;7.90;99.90
47626;DHT22;33342;45.574;9.252;2023-02-28T08:35:19;7.90;99.90
47626;DHT22;33342;45.574;9.252;2023-02-28T08:37:47;7.90;99.90
47626;DHT22;33342;45.574;9.252;2023-02-28T08:40:15;7.90;99.90
47626;DHT22;33342;45.574;9.252;2023-02-28T08:42:45;8.00;99.90
47626;DHT22;33342;45.574;9.252;2023-02-28T08:45:13;8.00;99.90
47626;DHT22;33342;45.574;9.252;2023-02-28T08:47:41;8.00;99.90
47626;DHT22;33342;45.574;9.252;2023-02-28T08:50:08;8.10;99.90
47626;DHT22;33342;45.574;9.252;2023-02-28T08:52:35;8.10;99.90
47626;DHT22;33342;45.574;9.252;2023-02-28T08:55:02;8.10;99.90
47626;DHT22;33342;45.574;9.252;2023-02-28T08:57:29;8.10;99.90
47626;DHT22;33342;45.574;9.252;2023-02-28T08:59:57;8.10;99.90
47626;DHT22;33342;45.574;9.252;2023-02-28T09:02:24;8.00;99.90
47626;DHT22;33342;45.574;9.252;2023-02-28T09:04:51;8.10;99.90
47626;DHT22;33342;45.574;9.252;2023-02-28T09:07:18;8.10;99.90
47626;DHT22;33342;45.574;9.252;2023-02-28T09:09:45;8.20;99.90
47626;DHT22;33342;45.574;9.252;2023-02-28T09:12:25;8.30;99.90
47626;DHT22;33342;45.574;9.252;2023-02-28T09:14:52;8.40;99.90
47626;DHT22;33342;45.574;9.252;2023-02-28T09:17:19;8.40;99.90
47626;DHT22;33342;45.574;9.252;2023-02-28T09:19:49;8.50;99.90
47626;DHT22;33342;45.574;9.252;2023-02-28T09:22:17;8.60;99.90
47626;DHT22;33342;45.574;9.252;2023-02-28T09:24:43;8.60;99.90
47626;DHT22;33342;45.574;9.252;2023-02-28T09:27:11;8.70;99.90
47626;DHT22;33342;45.574;9.252;2023-02-28T09:29:38;8.70;99.90
47626;DHT22;33342;45.574;9.252;2023-02-28T09:32:05;8.70;99.90
47626;DHT22;33342;45.574;9.252;2023-02-28T09:34:33;8.70;99.90
47626;DHT22;33342;45.574;9.252;2023-02-28T09:37:00;8.70;99.90
47626;DHT22;33342;45.574;9.252;2023-02-28T09:39:27;8.70;99.90
47626;DHT22;33342;45.574;9.252;2023-02-28T09:41:55;8.70;99.90
47626;DHT22;33342;45.574;9.252;2023-02-28T09:44:48;8.70;99.90
47626;DHT22;33342;45.574;9.252;2023-02-28T09:49:46;8.80;99.90
47626;DHT22;33342;45.574;9.252;2023-02-28T09:52:28;8.70;99.90
47626;DHT22;33342;45.574;9.252;2023-02-28T09:55:20;8.80;99.90
47626;DHT22;33342;45.574;9.252;2023-02-28T09:57:50;8.80;99.90
47626;DHT22;33342;45.574;9.252;2023-02-28T10:00:18;8.80;99.90
47626;DHT22;33342;45.574;9.252;2023-02-28T10:03:15;8.80;99.90
47626;DHT22;33342;45.574;9.252;2023-02-28T10:08:38;8.90;99.90
47626;DHT22;33342;45.574;9.252;2023-02-28T10:11:12;8.90;99.90
47626;DHT22;33342;45.574;9.252;2023-02-28T10:14:00;8.90;99.90
47626;DHT22;33342;45.574;9.252;2023-02-28T10:16:33;9.00;99.90
47626;DHT22;33342;45.574;9.252;2023-02-28T10:19:06;9.00;99.90
47626;DHT22;33342;45.574;9.252;2023-02-28T10:22:11;9.10;99.90
47626;DHT22;33342;45.574;9.252;2023-02-28T10:24:43;9.10;99.90
47626;DHT22;33342;45.574;9.252;2023-02-28T10:27:20;9.10;99.90
47626;DHT22;33342;45.574;9.252;2023-02-28T10:29:53;9.20;99.90
47626;DHT22;33342;45.574;9.252;2023-02-28T10:32:30;9.20;99.90
47626;DHT22;33342;45.574;9.252;2023-02-28T10:35:18;9.20;99.90
47626;DHT22;33342;45.574;9.252;2023-02-28T10:37:48;9.20;99.90
47626;DHT22;33342;45.574;9.252;2023-02-28T10:46:02;9.20;99.90
47626;DHT22;33342;45.574;9.252;2023-02-28T10:51:14;9.40;99.90
47626;DHT22;33342;45.574;9.252;2023-02-28T10:53:45;9.40;99.90
47626;DHT22;33342;45.574;9.252;2023-02-28T10:56:28;9.40;99.90
47626;DHT22;33342;45.574;9.252;2023-02-28T11:01:47;9.40;99.90
47626;DHT22;33342;45.574;9.252;2023-02-28T11:06:58;9.50;99.90
47626;DHT22;33342;45.574;9.252;2023-02-28T11:09:37;9.50;99.90
47626;DHT22;33342;45.574;9.252;2023-02-28T11:12:08;9.50;99.90
47626;DHT22;33342;45.574;9.252;2023-02-28T11:14:51;9.50;99.90
47626;DHT22;33342;45.574;9.252;2023-02-28T11:17:28;9.50;99.90
47626;DHT22;33342;45.574;9.252;2023-02-28T11:20:02;9.50;99.90
47626;DHT22;33342;45.574;9.252;2023-02-28T11:22:35;9.50;99.90
47626;DHT22;33342;45.574;9.252;2023-02-28T11:25:12;9.60;99.90
47626;DHT22;33342;45.574;9.252;2023-02-28T11:27:54;9.60;99.90
47626;DHT22;33342;45.574;9.252;2023-02-28T11:30:37;9.70;99.90
47626;DHT22;33342;45.574;9.252;2023-02-28T11:33:26;9.70;99.90
47626;DHT22;33342;45.574;9.252;2023-02-28T11:35:57;9.60;99.90
47626;DHT22;33342;45.574;9.252;2023-02-28T11:38:26;9.60;99.90
47626;DHT22;33342;45.574;9.252;2023-02-28T11:49:13;9.70;99.90
47626;DHT22;33342;45.574;9.252;2023-02-28T12:00:27;9.60;99.90
47626;DHT22;33342;45.574;9.252;2023-02-28T12:05:38;9.60;99.90
47626;DHT22;33342;45.574;9.252;2023-02-28T12:08:22;9.50;99.90
47626;DHT22;33342;45.574;9.252;2023-02-28T12:11:03;9.60;99.90
47626;DHT22;33342;45.574;9.252;2023-02-28T12:13:48;9.60;99.90
47626;DHT22;33342;45.574;9.252;2023-02-28T12:16:44;9.70;99.90
47626;DHT22;33342;45.574;9.252;2023-02-28T12:19:29;9.60;99.90
47626;DHT22;33342;45.574;9.252;2023-02-28T12:22:31;9.70;99.90
47626;DHT22;33342;45.574;9.252;2023-02-28T12:27:42;9.70;99.90
47626;DHT22;33342;45.574;9.252;2023-02-28T12:32:44;9.70;99.90
47626;DHT22;33342;45.574;9.252;2023-02-28T12:35:16;9.70;99.90
47626;DHT22;33342;45.574;9.252;2023-02-28T12:40:49;9.80;99.90
47626;DHT22;33342;45.574;9.252;2023-02-28T12:43:18;9.90;99.90
47626;DHT22;33342;45.574;9.252;2023-02-28T12:45:53;9.90;99.90
47626;DHT22;33342;45.574;9.252;2023-02-28T12:48:42;10.00;99.90
47626;DHT22;33342;45.574;9.252;2023-02-28T12:51:11;10.10;99.90
47626;DHT22;33342;45.574;9.252;2023-02-28T13:02:31;10.30;99.90
47626;DHT22;33342;45.574;9.252;2023-02-28T13:05:15;10.30;99.90
47626;DHT22;33342;45.574;9.252;2023-02-28T13:10:23;10.30;99.90
47626;DHT22;33342;45.574;9.252;2023-02-28T13:12:54;10.30;99.90
47626;DHT22;33342;45.574;9.252;2023-02-28T13:15:26;10.40;99.90
47626;DHT22;33342;45.574;9.252;2023-02-28T13:17:58;10.50;99.90
47626;DHT22;33342;45.574;9.252;2023-02-28T13:20:28;10.50;99.90
47626;DHT22;33342;45.574;9.252;2023-02-28T13:22:56;10.50;99.90
47626;DHT22;33342;45.574;9.252;2023-02-28T13:28:02;10.50;99.90
47626;DHT22;33342;45.574;9.252;2023-02-28T13:34:04;10.60;99.90
47626;DHT22;33342;45.574;9.252;2023-02-28T13:41:50;10.80;99.90
47626;DHT22;33342;45.574;9.252;2023-02-28T13:44:22;10.90;99.90
47626;DHT22;33342;45.574;9.252;2023-02-28T14:00:15;11.50;99.90
47626;DHT22;33342;45.574;9.252;2023-02-28T14:03:10;11.70;99.90
47626;DHT22;33342;45.574;9.252;2023-02-28T14:05:42;11.80;99.90
47626;DHT22;33342;45.574;9.252;2023-02-28T14:08:19;11.90;99.90
47626;DHT22;33342;45.574;9.252;2023-02-28T14:10:49;11.90;99.90
47626;DHT22;33342;45.574;9.252;2023-02-28T14:13:37;12.10;99.90
47626;DHT22;33342;45.574;9.252;2023-02-28T14:16:14;12.20;99.90
47626;DHT22;33342;45.574;9.252;2023-02-28T14:18:50;12.40;99.90
47626;DHT22;33342;45.574;9.252;2023-02-28T14:21:34;12.50;99.90
47626;DHT22;33342;45.574;9.252;2023-02-28T14:24:21;12.70;99.90
47626;DHT22;33342;45.574;9.252;2023-02-28T14:32:47;13.00;99.90
47626;DHT22;33342;45.574;9.252;2023-02-28T14:35:59;13.00;99.90
47626;DHT22;33342;45.574;9.252;2023-02-28T14:38:28;13.00;99.90
47626;DHT22;33342;45.574;9.252;2023-02-28T14:40:58;13.00;99.90
47626;DHT22;33342;45.574;9.252;2023-02-28T14:43:28;12.90;99.90
47626;DHT22;33342;45.574;9.252;2023-02-28T14:45:57;12.90;99.90
47626;DHT22;33342;45.574;9.252;2023-02-28T14:48:25;12.90;99.90
47626;DHT22;33342;45.574;9.252;2023-02-28T14:50:57;12.90;99.90
47626;DHT22;33342;45.574;9.252;2023-02-28T14:53:28;13.00;99.90
47626;DHT22;33342;45.574;9.252;2023-02-28T14:55:55;13.10;99.90
47626;DHT22;33342;45.574;9.252;2023-02-28T14:58:28;13.20;99.90
47626;DHT22;33342;45.574;9.252;2023-02-28T15:00:58;13.30;99.90
47626;DHT22;33342;45.574;9.252;2023-02-28T15:06:05;13.90;99.90
47626;DHT22;33342;45.574;9.252;2023-02-28T15:08:32;14.20;99.90
47626;DHT22;33342;45.574;9.252;2023-02-28T15:11:14;14.70;99.90
47626;DHT22;33342;45.574;9.252;2023-02-28T15:13:44;15.30;99.90
47626;DHT22;33342;45.574;9.252;2023-02-28T15:16:20;15.80;99.90
47626;DHT22;33342;45.574;9.252;2023-02-28T15:21:45;16.70;99.90
47626;DHT22;33342;45.574;9.252;2023-02-28T15:24:18;17.10;99.90
47626;DHT22;33342;45.574;9.252;2023-02-28T15:26:55;17.40;99.90
47626;DHT22;33342;45.574;9.252;2023-02-28T15:29:25;17.50;99.90
47626;DHT22;33342;45.574;9.252;2023-02-28T15:31:58;17.60;99.90
47626;DHT22;33342;45.574;9.252;2023-02-28T15:34:37;17.50;99.90
47626;DHT22;33342;45.574;9.252;2023-02-28T15:37:27;17.30;99.90
47626;DHT22;33342;45.574;9.252;2023-02-28T15:42:36;16.70;99.90
47626;DHT22;33342;45.574;9.252;2023-02-28T15:45:04;16.60;99.90
47626;DHT22;33342;45.574;9.252;2023-02-28T15:47:31;16.60;99.90
47626;DHT22;33342;45.574;9.252;2023-02-28T15:50:01;16.60;99.90
47626;DHT22;33342;45.574;9.252;2023-02-28T15:52:49;16.70;99.90
47626;DHT22;33342;45.574;9.252;2023-02-28T15:55:24;16.80;99.90
47626;DHT22;33342;45.574;9.252;2023-02-28T15:57:55;16.90;99.90
47626;DHT22;33342;45.574;9.252;2023-02-28T16:00:27;16.70;99.90
47626;DHT22;33342;45.574;9.252;2023-02-28T16:02:54;16.20;99.90
47626;DHT22;33342;45.574;9.252;2023-02-28T16:05:27;15.80;99.90
47626;DHT22;33342;45.574;9.252;2023-02-28T16:07:56;15.40;99.90
47626;DHT22;33342;45.574;9.252;2023-02-28T16:10:25;15.00;99.90
47626;DHT22;33342;45.574;9.252;2023-02-28T16:12:54;14.70;99.90
47626;DHT22;33342;45.574;9.252;2023-02-28T16:15:27;14.40;99.90
47626;DHT22;33342;45.574;9.252;2023-02-28T16:17:57;14.30;99.90
47626;DHT22;33342;45.574;9.252;2023-02-28T16:20:29;14.30;99.90
47626;DHT22;33342;45.574;9.252;2023-02-28T16:22:57;14.30;99.90
47626;DHT22;33342;45.574;9.252;2023-02-28T16:25:54;14.10;99.90
47626;DHT22;33342;45.574;9.252;2023-02-28T16:28:25;13.90;99.90
47626;DHT22;33342;45.574;9.252;2023-02-28T16:31:00;13.60;99.90
47626;DHT22;33342;45.574;9.252;2023-02-28T16:33:30;13.50;99.90
47626;DHT22;33342;45.574;9.252;2023-02-28T16:35:58;13.30;99.90
47626;DHT22;33342;45.574;9.252;2023-02-28T16:38:25;13.20;99.90
47626;DHT22;33342;45.574;9.252;2023-02-28T16:40:56;13.00;99.90
47626;DHT22;33342;45.574;9.252;2023-02-28T16:43:26;12.90;99.90
47626;DHT22;33342;45.574;9.252;2023-02-28T16:45:57;12.80;99.90
47626;DHT22;33342;45.574;9.252;2023-02-28T16:48:28;12.60;99.90
47626;DHT22;33342;45.574;9.252;2023-02-28T16:50:56;12.50;99.90
47626;DHT22;33342;45.574;9.252;2023-02-28T16:53:23;12.50;99.90
47626;DHT22;33342;45.574;9.252;2023-02-28T16:55:50;12.40;99.90
47626;DHT22;33342;45.574;9.252;2023-02-28T16:58:17;12.30;99.90
47626;DHT22;33342;45.574;9.252;2023-02-28T17:00:45;12.20;99.90
47626;DHT22;33342;45.574;9.252;2023-02-28T17:03:26;12.10;99.90
47626;DHT22;33342;45.574;9.252;2023-02-28T17:05:59;12.00;99.90
47626;DHT22;33342;45.574;9.252;2023-02-28T17:08:26;12.00;99.90
47626;DHT22;33342;45.574;9.252;2023-02-28T17:10:55;11.90;99.90
47626;DHT22;33342;45.574;9.252;2023-02-28T17:13:22;11.80;99.90
47626;DHT22;33342;45.574;9.252;2023-02-28T17:15:49;11.70;99.90
47626;DHT22;33342;45.574;9.252;2023-02-28T17:18:18;11.60;99.90
47626;DHT22;33342;45.574;9.252;2023-02-28T17:20:48;11.60;99.90
47626;DHT22;33342;45.574;9.252;2023-02-28T17:23:15;11.50;99.90
47626;DHT22;33342;45.574;9.252;2023-02-28T17:25:43;11.50;99.90
47626;DHT22;33342;45.574;9.252;2023-02-28T17:28:22;11.40;99.90
47626;DHT22;33342;45.574;9.252;2023-02-28T17:30:50;11.40;99.90
47626;DHT22;33342;45.574;9.252;2023-02-28T17:33:17;11.40;99.90
47626;DHT22;33342;45.574;9.252;2023-02-28T17:35:44;11.30;99.90
47626;DHT22;33342;45.574;9.252;2023-02-28T17:38:16;11.20;99.90
47626;DHT22;33342;45.574;9.252;2023-02-28T17:40:44;11.20;99.90
47626;DHT22;33342;45.574;9.252;2023-02-28T17:43:11;11.20;99.90
47626;DHT22;33342;45.574;9.252;2023-02-28T17:45:38;11.10;99.90
47626;DHT22;33342;45.574;9.252;2023-02-28T17:48:05;11.10;99.90
47626;DHT22;33342;45.574;9.252;2023-02-28T17:50:33;11.00;99.90
47626;DHT22;33342;45.574;9.252;2023-02-28T17:53:00;11.00;99.90
47626;DHT22;33342;45.574;9.252;2023-02-28T17:55:27;10.90;99.90
47626;DHT22;33342;45.574;9.252;2023-02-28T17:57:54;10.80;99.90
47626;DHT22;33342;45.574;9.252;2023-02-28T18:00:21;10.80;99.90
47626;DHT22;33342;45.574;9.252;2023-02-28T18:02:50;10.70;99.90
47626;DHT22;33342;45.574;9.252;2023-02-28T18:05:18;10.70;99.90
47626;DHT22;33342;45.574;9.252;2023-02-28T18:07:45;10.70;99.90
47626;DHT22;33342;45.574;9.252;2023-02-28T18:10:18;10.60;99.90
47626;DHT22;33342;45.574;9.252;2023-02-28T18:12:50;10.60;99.90
47626;DHT22;33342;45.574;9.252;2023-02-28T18:15:19;10.60;99.90
47626;DHT22;33342;45.574;9.252;2023-02-28T18:17:49;10.60;99.90
47626;DHT22;33342;45.574;9.252;2023-02-28T18:20:17;10.60;99.90